Terminal Aerodrome Forecast
Issued by NWS

Home | Current Version | Previous Version | Text Only | Print | Product List | Glossary On
Versions: 1 2 3 4 5 6 7 8 9 10 11 12 13
000
FTUS43 KLSX 020520
TAFCPS
TAF
KCPS 020520Z 0206/0306 VRB03KT P6SM SCT150
     FM021700 23008KT P6SM SCT040
     FM022300 VRB03KT P6SM FEW200=

USA.gov is the U.S. government's official web portal to all federal, state and local government web resources and services.